Time;durP1;ratioP1;P1;durP2;ratioP2;P2;SDS_P1;SDS_P2;PMS_P1;PMS_P2;Temp;Humidity;BMP_temperature;BMP_pressure;BME280_temperature;BME280_humidity;BME280_pressure;Samples;Min_cycle;Max_cycle;Signal;HPM_P1;HPM_P2
2022/06/23 00:01:50;;;;;;;13.77;8.00;;;;;;;22.70;67.80;100465.13;5070694;28;20059;-68
2022/06/23 00:04:20;;;;;;;10.07;6.93;;;;;;;22.74;67.71;100469.53;5038530;28;20044;-68
2022/06/23 00:06:52;;;;;;;11.75;7.53;;;;;;;22.53;68.84;100463.88;5057818;28;20059;-68
2022/06/23 00:09:35;;;;;;;12.70;7.63;;;;;;;22.34;69.97;100456.63;5077838;28;20436;-68
2022/06/23 00:12:27;;;;;;;11.13;7.82;;;;;;;22.55;69.47;100467.09;5079840;28;20562;-68
2022/06/23 00:14:55;;;;;;;12.95;7.80;;;;;;;22.23;71.18;100455.00;5056876;28;20060;-69
2022/06/23 00:17:29;;;;;;;11.85;8.95;;;;;;;22.05;72.43;100462.59;5083523;28;20052;-68
2022/06/23 00:20:00;;;;;;;11.45;8.75;;;;;;;22.00;72.94;100457.38;5076353;28;20048;-68
2022/06/23 00:22:29;;;;;;;15.07;8.57;;;;;;;22.02;72.60;100452.16;5086446;28;20061;-68
2022/06/23 00:25:00;;;;;;;16.02;9.63;;;;;;;22.03;72.66;100457.38;5060414;28;20052;-68
2022/06/23 00:27:30;;;;;;;15.63;9.23;;;;;;;22.09;72.59;100452.16;5078285;28;20075;-68
2022/06/23 00:30:05;;;;;;;12.20;8.80;;;;;;;22.34;71.89;100456.63;5074373;28;20041;-68
2022/06/23 00:32:33;;;;;;;12.35;8.88;;;;;;;22.21;72.13;100452.59;5075465;28;20048;-68
2022/06/23 00:35:04;;;;;;;12.40;8.35;;;;;;;22.12;72.36;100454.97;5039340;28;20056;-69
2022/06/23 00:37:33;;;;;;;16.90;9.13;;;;;;;22.12;72.66;100448.59;5059559;28;20078;-67
2022/06/23 00:40:11;;;;;;;12.57;9.43;;;;;;;22.02;73.31;100455.75;5081428;28;20396;-67
2022/06/23 00:43:03;;;;;;;12.98;8.60;;;;;;;22.18;72.89;100456.19;5079695;28;20070;-67
2022/06/23 00:45:43;;;;;;;12.27;9.02;;;;;;;22.29;72.34;100447.81;5061776;28;20491;-68
2022/06/23 00:48:18;;;;;;;15.52;9.65;;;;;;;22.18;73.28;100447.78;5052931;28;20119;-68
2022/06/23 00:51:15;;;;;;;16.42;9.80;;;;;;;22.21;73.32;100446.97;5075494;28;20047;-69
2022/06/23 00:53:55;;;;;;;14.13;9.00;;;;;;;22.28;73.28;100440.59;5043417;28;20071;-68
2022/06/23 00:56:44;;;;;;;16.23;9.45;;;;;;;22.38;73.02;100442.59;5068494;28;20068;-68
2022/06/23 00:59:52;;;;;;;13.13;8.82;;;;;;;22.40;73.54;100443.03;5077025;28;20036;-68
2022/06/23 01:02:24;;;;;;;13.20;8.85;;;;;;;22.13;75.55;100434.16;4976827;28;20053;-68
2022/06/23 01:05:03;;;;;;;10.32;8.20;;;;;;;22.26;75.32;100429.75;4994773;28;20081;-67
2022/06/23 01:08:13;;;;;;;13.63;9.05;;;;;;;22.43;74.93;100432.97;5038989;28;20053;-68
2022/06/23 01:10:46;;;;;;;12.15;8.13;;;;;;;22.37;75.22;100437.41;5061969;28;20636;-68
2022/06/23 01:13:52;;;;;;;12.27;8.73;;;;;;;22.41;75.31;100433.38;5073281;28;20056;-68
2022/06/23 01:16:24;;;;;;;13.05;9.10;;;;;;;22.23;75.82;100430.56;5072683;28;20498;-68
2022/06/23 01:18:55;;;;;;;11.88;9.20;;;;;;;22.44;75.76;100429.75;5061584;28;20063;-68
2022/06/23 01:21:32;;;;;;;10.48;8.18;;;;;;;22.43;75.18;100428.19;5068247;28;20063;-68
2022/06/23 01:24:22;;;;;;;12.20;9.00;;;;;;;22.30;75.81;100426.94;5054811;28;20068;-68
2022/06/23 01:27:02;;;;;;;13.77;9.50;;;;;;;22.35;75.89;100432.19;5075248;28;20047;-68
2022/06/23 01:29:46;;;;;;;12.05;9.30;;;;;;;22.40;76.14;100426.19;5033736;28;20045;-68
2022/06/23 01:32:18;;;;;;;12.82;9.57;;;;;;;22.52;75.89;100427.78;5069868;28;20067;-68
2022/06/23 01:34:52;;;;;;;12.30;8.98;;;;;;;22.53;75.43;100423.75;5069660;28;20063;-68
2022/06/23 01:37:30;;;;;;;13.45;10.73;;;;;;;22.29;76.52;100423.34;5021390;28;20056;-68
2022/06/23 01:40:00;;;;;;;;;;;;;;;22.11;77.69;100430.94;5071855;28;20040;-67
2022/06/23 01:42:46;;;;;;;17.80;10.93;;;;;;;22.00;77.51;100426.50;5051107;28;19931;-69
2022/06/23 01:45:32;;;;;;;13.70;10.18;;;;;;;21.66;79.33;100419.56;5064606;28;20052;-67
2022/06/23 01:48:15;;;;;;;13.60;10.23;;;;;;;21.70;79.67;100429.59;5075775;28;20540;-69
2022/06/23 01:50:50;;;;;;;13.38;11.18;;;;;;;21.46;81.21;100423.88;5056562;28;20389;-68
2022/06/23 01:53:17;;;;;;;14.45;10.77;;;;;;;21.66;80.88;100431.59;5071349;28;20460;-68
2022/06/23 01:55:59;;;;;;;16.35;10.57;;;;;;;21.83;79.64;100424.44;5053548;28;20059;-68
2022/06/23 01:58:33;;;;;;;15.82;10.68;;;;;;;21.79;80.27;100427.22;5073912;28;20043;-68
2022/06/23 02:01:02;;;;;;;14.82;10.85;;;;;;;21.96;79.73;100429.31;5056981;28;20044;-68
2022/06/23 02:03:35;;;;;;;13.07;10.38;;;;;;;22.22;78.74;100431.78;5064203;28;20719;-69
2022/06/23 02:06:16;;;;;;;14.00;10.98;;;;;;;22.47;77.38;100430.97;5078209;28;20523;-67
2022/06/23 02:08:56;;;;;;;16.35;11.98;;;;;;;22.47;76.87;100419.75;5083639;28;20056;-67
2022/06/23 02:11:36;;;;;;;16.65;11.57;;;;;;;22.35;77.20;100423.78;5081642;28;20056;-68
2022/06/23 02:14:06;;;;;;;16.17;11.25;;;;;;;22.24;77.48;100420.13;5055880;28;20782;-68
2022/06/23 02:16:46;;;;;;;14.68;11.60;;;;;;;22.18;77.95;100421.72;5057415;28;20929;-68
2022/06/23 02:19:41;;;;;;;17.35;11.80;;;;;;;21.91;79.16;100420.47;5057094;28;20055;-68
2022/06/23 02:22:21;;;;;;;16.38;11.75;;;;;;;22.04;79.19;100411.28;5070134;28;20416;-68
2022/06/23 02:25:23;;;;;;;14.50;11.55;;;;;;;22.14;79.01;100415.31;5037040;28;20124;-67
2022/06/23 02:28:03;;;;;;;16.15;11.93;;;;;;;22.12;79.54;100414.91;5061659;28;20055;-68
2022/06/23 02:30:40;;;;;;;19.10;11.20;;;;;;;22.26;79.17;100414.94;5074624;28;20040;-69
2022/06/23 02:33:13;;;;;;;17.70;12.77;;;;;;;22.24;79.31;100411.72;5059508;28;20083;-68
2022/06/23 02:35:54;;;;;;;14.27;11.57;;;;;;;22.11;79.72;100411.28;5078943;28;20044;-67
2022/06/23 02:38:45;;;;;;;15.30;11.10;;;;;;;21.98;81.16;100404.47;5072328;28;20056;-67
2022/06/23 02:41:33;;;;;;;16.35;9.43;;;;;;;22.13;79.96;100408.09;5061570;28;20049;-68
2022/06/23 02:44:19;;;;;;;13.50;6.55;;;;;;;22.21;79.96;100404.88;5082430;28;20059;-67
2022/06/23 02:46:52;;;;;;;15.73;6.22;;;;;;;22.20;79.68;100410.91;5076441;28;20053;-67
2022/06/23 02:49:54;;;;;;;11.18;5.00;;;;;;;22.13;79.83;100417.31;5079189;28;20056;-67
2022/06/23 02:52:25;;;;;;;13.05;4.72;;;;;;;22.10;79.88;100418.13;5085550;28;20052;-68
2022/06/23 02:55:11;;;;;;;9.10;3.83;;;;;;;22.18;79.67;100414.13;5059928;28;20049;-68
2022/06/23 02:57:44;;;;;;;10.23;4.18;;;;;;;22.10;79.11;100422.94;5076014;28;20035;-67
2022/06/23 03:00:30;;;;;;;8.88;4.03;;;;;;;22.05;78.89;100414.91;5054783;28;20491;-68
2022/06/23 03:03:18;;;;;;;12.93;3.70;;;;;;;22.07;78.69;100421.69;5073085;28;20052;-68
2022/06/23 03:06:02;;;;;;;9.63;3.63;;;;;;;22.16;78.00;100426.94;5078288;28;20575;-69
2022/06/23 03:08:51;;;;;;;9.30;3.45;;;;;;;22.06;77.76;100434.13;5059444;28;20063;-68
2022/06/23 03:11:53;;;;;;;9.40;3.33;;;;;;;21.98;77.54;100432.53;5070708;28;20064;-69
2022/06/23 03:15:01;;;;;;;11.32;3.22;;;;;;;21.99;77.23;100439.72;5041134;28;20063;-68
2022/06/23 03:17:45;;;;;;;8.48;2.72;;;;;;;21.96;76.74;100442.53;5063386;28;20048;-68
2022/06/23 03:20:37;;;;;;;8.15;2.50;;;;;;;21.83;76.87;100432.84;5079910;28;20044;-70
2022/06/23 03:23:28;;;;;;;8.95;2.72;;;;;;;21.83;76.95;100430.06;5076590;28;20048;-68
2022/06/23 03:26:14;;;;;;;8.98;2.20;;;;;;;21.73;76.73;100436.41;5073215;28;20067;-67
2022/06/23 03:28:53;;;;;;;8.88;2.65;;;;;;;21.62;77.15;100447.56;5040915;28;20056;-68
2022/06/23 03:31:23;;;;;;;8.88;2.38;;;;;;;21.63;76.69;100451.19;5063337;28;20053;-68
2022/06/23 03:33:53;;;;;;;9.90;2.53;;;;;;;21.67;76.76;100444.38;5053778;28;20060;-67
2022/06/23 03:36:38;;;;;;;12.70;2.60;;;;;;;21.70;76.62;100448.41;5077225;28;20052;-68
2022/06/23 03:42:09;;;;;;;9.93;3.05;;;;;;;21.63;76.77;100462.41;5052970;28;20047;-68
2022/06/23 03:44:43;;;;;;;12.18;2.75;;;;;;;21.67;76.25;100452.78;5085411;28;20060;-68
2022/06/23 03:47:24;;;;;;;8.43;2.35;;;;;;;21.58;76.15;100458.00;5073629;28;20813;-68
2022/06/23 03:49:59;;;;;;;9.10;2.47;;;;;;;21.54;76.80;100473.16;5060156;28;20068;-69
2022/06/23 03:52:36;;;;;;;9.25;2.20;;;;;;;21.60;76.20;100468.81;5068403;28;20055;-67
2022/06/23 03:55:13;;;;;;;9.65;2.40;;;;;;;21.57;76.74;100469.56;5078470;28;20052;-68
2022/06/23 03:57:53;;;;;;;13.80;3.08;;;;;;;21.51;76.68;100480.38;5087647;28;20414;-67
2022/06/23 04:00:26;;;;;;;8.23;2.55;;;;;;;21.52;76.87;100481.16;5059268;28;20060;-68
2022/06/23 04:03:23;;;;;;;11.73;2.90;;;;;;;21.53;76.45;100486.38;5078975;28;20061;-68
2022/06/23 04:05:54;;;;;;;10.65;2.97;;;;;;;21.62;75.93;100486.03;5064546;28;20060;-68
2022/06/23 04:08:29;;;;;;;14.73;2.80;;;;;;;21.49;76.20;100488.38;5079240;28;20520;-68
2022/06/23 04:11:43;;;;;;;8.55;2.40;;;;;;;21.43;75.94;100489.94;5084387;28;20040;-67
2022/06/23 04:13:47;;;;;;;12.55;2.92;;;;;;;21.47;76.02;100489.94;5067492;28;20047;-68
2022/06/23 04:16:14;;;;;;;11.27;2.60;;;;;;;21.50;75.79;100492.75;5063253;28;20059;-67
2022/06/23 04:18:45;;;;;;;9.48;2.50;;;;;;;21.47;75.75;100496.38;5055782;28;20061;-67
2022/06/23 04:21:16;;;;;;;9.73;2.53;;;;;;;21.47;75.40;100499.16;5059322;28;20044;-67
2022/06/23 04:23:51;;;;;;;14.00;2.30;;;;;;;21.53;75.21;100502.41;5062120;28;20060;-68
2022/06/23 04:26:21;;;;;;;8.95;2.65;;;;;;;21.31;76.23;100500.66;5063599;28;20051;-68
2022/06/23 04:28:50;;;;;;;;;;;;;;;21.45;75.84;100506.34;5076078;28;20664;-68
2022/06/23 04:31:43;;;;;;;14.30;2.88;;;;;;;21.49;75.77;100505.19;5060941;28;19931;-68
2022/06/23 04:34:39;;;;;;;10.55;2.42;;;;;;;21.68;74.59;100513.28;5052831;28;20053;-68
2022/06/23 04:37:39;;;;;;;11.48;2.97;;;;;;;21.50;75.56;100517.19;5079244;28;20060;-67
2022/06/23 04:40:23;;;;;;;14.18;3.30;;;;;;;21.40;75.76;100515.94;5045243;28;20056;-68
2022/06/23 04:43:06;;;;;;;12.00;2.83;;;;;;;21.40;75.92;100507.53;5060619;28;20754;-68
2022/06/23 04:45:51;;;;;;;16.20;2.83;;;;;;;21.36;76.37;100511.53;5057836;28;20053;-68
2022/06/23 04:48:34;;;;;;;11.93;3.00;;;;;;;21.48;75.97;100506.38;5044564;28;20495;-69
2022/06/23 04:51:19;;;;;;;15.88;3.38;;;;;;;21.52;75.38;100517.59;5076067;28;20056;-67
2022/06/23 04:53:52;;;;;;;10.70;2.78;;;;;;;21.60;75.42;100519.25;5072895;28;20879;-68
2022/06/23 04:56:30;;;;;;;11.82;3.00;;;;;;;21.53;75.64;100520.00;5074912;28;20060;-68
2022/06/23 04:59:02;;;;;;;19.65;3.25;;;;;;;21.66;74.88;100515.69;5085148;28;20789;-67
2022/06/23 05:01:36;;;;;;;15.02;3.05;;;;;;;21.66;74.40;100512.06;5058659;28;20515;-68
2022/06/23 05:04:11;;;;;;;12.35;3.38;;;;;;;21.74;74.64;100511.72;5047731;28;20048;-68
2022/06/23 05:06:42;;;;;;;17.30;2.95;;;;;;;21.80;73.75;100521.41;5062813;28;20047;-70
2022/06/23 05:09:32;;;;;;;14.98;3.13;;;;;;;21.92;73.72;100518.25;5045920;28;20067;-68
2022/06/23 05:12:06;;;;;;;13.45;3.28;;;;;;;22.01;73.26;100513.06;5056673;28;20036;-68
2022/06/23 05:14:57;;;;;;;12.40;3.22;;;;;;;22.09;72.78;100528.72;5089339;28;20057;-68
2022/06/23 05:17:27;;;;;;;14.77;2.65;;;;;;;22.10;72.58;100521.91;5066210;28;20052;-68
2022/06/23 05:19:58;;;;;;;11.90;3.78;;;;;;;22.06;72.39;100526.72;5082628;28;20068;-67
2022/06/23 05:22:26;;;;;;;;;;;;;;;22.10;72.53;100526.72;5075276;28;20051;-68
2022/06/23 05:24:56;;;;;;;18.70;3.28;;;;;;;21.89;73.00;100530.25;5074326;28;19924;-69
2022/06/23 05:27:29;;;;;;;15.25;2.85;;;;;;;21.91;73.12;100527.88;5072893;28;20506;-68
2022/06/23 05:30:16;;;;;;;11.95;2.70;;;;;;;21.93;72.79;100530.28;5064823;28;20052;-68
2022/06/23 05:32:59;;;;;;;15.43;3.28;;;;;;;21.98;72.48;100529.88;5059697;28;20489;-70
2022/06/23 05:35:32;;;;;;;18.48;3.63;;;;;;;22.06;72.21;100542.72;5061040;28;20424;-68
2022/06/23 05:38:02;;;;;;;16.02;2.97;;;;;;;22.16;71.50;100537.16;5059755;28;20051;-68
2022/06/23 05:40:33;;;;;;;13.55;3.05;;;;;;;22.45;70.59;100524.03;5079676;28;20048;-69
2022/06/23 05:43:02;;;;;;;16.83;2.88;;;;;;;22.53;69.63;100524.81;5056307;28;20047;-69
2022/06/23 05:45:40;;;;;;;16.35;2.90;;;;;;;22.01;70.16;100521.47;5074370;28;20047;-70
2022/06/23 05:48:11;;;;;;;13.57;2.97;;;;;;;22.25;70.12;100517.13;5076245;28;20054;-69
2022/06/23 05:50:56;;;;;;;8.63;3.00;;;;;;;22.17;69.46;100515.53;5072333;28;20063;-69
2022/06/23 05:53:58;;;;;;;14.25;5.22;;;;;;;22.35;68.36;100511.56;5057737;28;20048;-68
2022/06/23 05:56:30;;;;;;;15.23;3.83;;;;;;;22.48;68.24;100516.78;4991545;28;20060;-68
2022/06/23 05:59:13;;;;;;;10.70;3.22;;;;;;;22.51;67.80;100519.59;5074400;28;20052;-68
2022/06/23 06:01:56;;;;;;;13.10;3.60;;;;;;;22.70;66.29;100512.84;5023972;28;20052;-67
2022/06/23 06:04:29;;;;;;;14.25;3.17;;;;;;;22.85;65.72;100509.66;5075476;28;20806;-66
2022/06/23 06:06:57;;;;;;;10.52;3.65;;;;;;;22.96;64.66;100515.28;5062692;28;20044;-67
2022/06/23 06:09:36;;;;;;;8.55;3.00;;;;;;;22.91;64.85;100513.66;5081739;28;20527;-65
2022/06/23 06:12:05;;;;;;;12.95;3.38;;;;;;;22.61;65.21;100509.63;5074901;28;20087;-66
2022/06/23 06:14:36;;;;;;;18.10;3.63;;;;;;;22.41;65.76;100511.97;5075365;28;20053;-65
2022/06/23 06:17:20;;;;;;;17.80;3.95;;;;;;;22.54;65.50;100518.84;5056190;28;20455;-67
2022/06/23 06:19:49;;;;;;;12.20;3.50;;;;;;;22.85;64.59;100525.69;5085293;28;20055;-66
2022/06/23 06:22:39;;;;;;;17.07;3.90;;;;;;;22.96;64.09;100520.88;5056923;28;20052;-65
2022/06/23 06:25:35;;;;;;;11.98;3.60;;;;;;;23.08;63.94;100515.63;5068857;28;20305;-64
2022/06/23 06:28:16;;;;;;;18.65;3.92;;;;;;;23.24;62.89;100518.84;5063731;28;20048;-66
2022/06/23 06:30:54;;;;;;;18.02;4.35;;;;;;;23.29;62.77;100512.06;5073326;28;20048;-66
2022/06/23 06:33:42;;;;;;;12.07;3.75;;;;;;;23.14;62.98;100513.22;5055250;28;20052;-66
2022/06/23 06:36:25;;;;;;;13.93;3.30;;;;;;;23.04;63.26;100500.81;5057010;28;20503;-67
2022/06/23 06:38:55;;;;;;;11.85;3.70;;;;;;;23.50;61.88;100500.78;5069761;28;20059;-67
2022/06/23 06:41:23;;;;;;;9.48;3.33;;;;;;;23.59;61.41;100501.13;5061486;28;20063;-67
2022/06/23 06:43:51;;;;;;;6.97;2.90;;;;;;;23.52;60.87;100503.94;5061431;28;20051;-65
2022/06/23 06:46:18;;;;;;;12.50;3.15;;;;;;;23.30;61.38;100519.28;5082553;28;20479;-65
2022/06/23 06:48:46;;;;;;;14.88;3.53;;;;;;;23.28;61.11;100516.88;5037002;28;20059;-67
2022/06/23 06:51:19;;;;;;;12.95;3.42;;;;;;;23.34;61.15;100503.22;5043818;28;20109;-66
2022/06/23 06:54:10;;;;;;;15.20;3.25;;;;;;;23.46;60.46;100505.59;5050566;28;20063;-67
2022/06/23 06:56:41;;;;;;;15.65;3.97;;;;;;;23.45;60.38;100501.16;5052716;28;20060;-66
2022/06/23 06:59:32;;;;;;;13.45;3.72;;;;;;;23.70;59.74;100521.59;5055653;28;20621;-67
2022/06/23 07:02:09;;;;;;;10.52;3.45;;;;;;;23.36;60.97;100524.06;5073326;28;20056;-66
2022/06/23 07:04:43;;;;;;;14.65;3.58;;;;;;;23.47;61.11;100523.28;5087920;28;20048;-67
2022/06/23 07:07:16;;;;;;;11.18;3.20;;;;;;;23.43;60.88;100542.97;5053474;28;20056;-67
2022/06/23 07:09:51;;;;;;;10.35;3.17;;;;;;;23.50;60.76;100505.59;5076114;28;20400;-67
2022/06/23 07:12:25;;;;;;;14.55;3.58;;;;;;;23.42;60.61;100502.78;5065118;28;20054;-66
2022/06/23 07:15:08;;;;;;;13.20;3.85;;;;;;;23.22;60.66;100512.81;5075483;28;20621;-66
2022/06/23 07:17:38;;;;;;;13.48;3.58;;;;;;;23.06;61.33;100520.06;5078060;28;20523;-66
2022/06/23 07:20:06;;;;;;;;;;;;;;;22.73;62.23;100529.72;5032680;28;20044;-66
2022/06/23 07:22:43;;;;;;;11.25;3.60;;;;;;;22.95;61.92;100531.31;5059135;28;19928;-66
2022/06/23 07:25:15;;;;;;;10.35;3.30;;;;;;;23.18;61.43;100544.97;5063471;28;20064;-65
2022/06/23 07:28:07;;;;;;;14.90;4.13;;;;;;;23.14;62.03;100532.91;5054967;28;20063;-65
2022/06/23 07:30:44;;;;;;;13.15;3.70;;;;;;;23.22;61.68;100531.72;5072580;28;20067;-65
2022/06/23 07:33:27;;;;;;;15.82;3.65;;;;;;;23.50;60.35;100528.88;5062087;28;20523;-67
2022/06/23 07:36:04;;;;;;;13.95;3.30;;;;;;;23.30;60.64;100544.56;5053450;28;20056;-67
2022/06/23 07:38:44;;;;;;;14.98;3.90;;;;;;;24.03;58.57;100535.16;5064878;28;20049;-67
2022/06/23 07:41:27;;;;;;;9.40;3.35;;;;;;;24.11;57.91;100539.53;5074215;28;20063;-67
2022/06/23 07:44:00;;;;;;;15.05;3.67;;;;;;;24.53;56.26;100536.50;5077030;28;20068;-66
2022/06/23 07:46:28;;;;;;;18.25;3.17;;;;;;;24.73;55.30;100533.97;5052945;28;20993;-66
2022/06/23 07:48:56;;;;;;;12.98;3.15;;;;;;;24.80;54.87;100541.56;5059837;28;20048;-66
2022/06/23 07:51:23;;;;;;;16.85;3.40;;;;;;;24.65;55.29;100534.41;5074855;28;20438;-69
2022/06/23 07:53:52;;;;;;;12.93;2.83;;;;;;;24.95;54.90;100540.28;5081012;28;20052;-67
2022/06/23 07:56:23;;;;;;;16.30;3.20;;;;;;;24.86;53.85;100534.28;5073476;28;20048;-65
2022/06/23 07:58:58;;;;;;;12.27;3.30;;;;;;;24.69;55.19;100538.03;5056557;28;20044;-67
2022/06/23 08:01:33;;;;;;;13.60;3.55;;;;;;;24.71;54.75;100524.31;5052763;28;20638;-66
2022/06/23 08:04:19;;;;;;;7.68;2.70;;;;;;;25.05;54.13;100523.28;5081164;28;20051;-69
2022/06/23 08:06:47;;;;;;;15.07;3.42;;;;;;;25.29;53.75;100521.44;5073236;28;20044;-70
2022/06/23 08:09:24;;;;;;;13.02;4.07;;;;;;;25.64;52.82;100521.09;5079243;28;20056;-67
2022/06/23 08:14:49;;;;;;;12.75;3.70;;;;;;;24.98;54.11;100520.50;5070604;28;20055;-67
2022/06/23 08:17:17;;;;;;;10.30;3.83;;;;;;;25.54;52.35;100528.44;5088136;28;20044;-68
2022/06/23 08:19:55;;;;;;;17.17;4.22;;;;;;;25.26;53.94;100527.91;5072178;28;20060;-68
2022/06/23 08:22:25;;;;;;;12.48;3.47;;;;;;;25.72;52.65;100527.47;5071755;28;20044;-67
2022/06/23 08:25:04;;;;;;;13.48;3.40;;;;;;;25.53;52.55;100523.22;5039682;28;20052;-67
2022/06/23 08:27:52;;;;;;;15.27;3.45;;;;;;;25.74;51.55;100517.34;5064297;28;20075;-67
2022/06/23 08:30:20;;;;;;;11.35;3.10;;;;;;;25.29;52.74;100513.78;5074026;28;20048;-68
2022/06/23 08:32:50;;;;;;;11.10;3.60;;;;;;;25.02;54.34;100526.91;5076112;28;20043;-67
2022/06/23 08:35:25;;;;;;;19.95;3.88;;;;;;;24.69;54.27;100521.13;5080825;28;20055;-67
2022/06/23 08:38:12;;;;;;;11.45;3.25;;;;;;;24.53;54.96;100524.41;5080759;28;20056;-68
2022/06/23 08:41:17;;;;;;;11.00;3.25;;;;;;;24.36;55.71;100525.34;5076149;28;20044;-68
2022/06/23 08:44:14;;;;;;;15.23;3.83;;;;;;;25.09;53.63;100528.88;5075567;28;20075;-68
2022/06/23 08:46:45;;;;;;;13.77;3.63;;;;;;;25.10;53.55;100524.81;5027554;28;20065;-68
2022/06/23 08:49:23;;;;;;;8.98;3.25;;;;;;;24.76;53.95;100529.56;5075512;28;20107;-68
2022/06/23 08:52:12;;;;;;;11.40;3.40;;;;;;;24.58;54.33;100532.47;5066218;28;20052;-68
2022/06/23 08:55:04;;;;;;;14.63;3.47;;;;;;;25.02;53.63;100531.75;5057221;28;20067;-68
2022/06/23 08:57:44;;;;;;;10.40;3.33;;;;;;;24.73;54.18;100538.81;5058406;28;20055;-67
2022/06/23 09:00:15;;;;;;;;;;;;;;;24.84;54.07;100531.91;5067948;28;20064;-67
2022/06/23 09:02:51;;;;;;;7.82;3.10;;;;;;;24.86;54.80;100526.63;5039523;28;20449;-68
2022/06/23 09:05:50;;;;;;;8.35;3.78;;;;;;;25.09;53.66;100531.69;5085455;28;20067;-68
2022/06/23 09:08:42;;;;;;;8.25;3.00;;;;;;;25.27;53.02;100530.31;5071124;28;20045;-68
2022/06/23 09:11:47;;;;;;;9.50;3.20;;;;;;;25.59;52.50;100527.97;5041400;28;20060;-69
2022/06/23 09:14:33;;;;;;;9.30;4.00;;;;;;;25.92;51.45;100517.13;5064436;28;20056;-70
2022/06/23 09:17:13;;;;;;;10.40;3.33;;;;;;;25.54;51.06;100525.63;5059635;28;20048;-70
2022/06/23 09:20:18;;;;;;;9.18;3.58;;;;;;;25.76;50.18;100519.75;5057784;28;20952;-69
2022/06/23 09:23:03;;;;;;;9.00;3.22;;;;;;;25.65;49.97;100519.84;5074318;28;20531;-70
2022/06/23 09:25:33;;;;;;;7.00;2.70;;;;;;;25.18;50.48;100520.72;5075257;28;20051;-69
2022/06/23 09:28:14;;;;;;;;;;;;;;;25.53;50.31;100526.03;5053765;28;20075;-68
2022/06/23 09:30:52;;;;;;;9.35;3.17;;;;;;;25.79;49.32;100522.53;5059517;28;19947;-70
2022/06/23 09:33:30;;;;;;;7.07;3.00;;;;;;;25.84;50.28;100507.94;5047162;28;20036;-69
2022/06/23 09:36:07;;;;;;;7.93;3.22;;;;;;;25.86;50.15;100513.97;5054887;28;20428;-69
2022/06/23 09:38:34;;;;;;;8.93;3.40;;;;;;;25.61;50.67;100510.66;5074148;28;20048;-70
2022/06/23 09:41:25;;;;;;;9.95;3.08;;;;;;;25.38;50.77;100510.50;5076915;28;20941;-69
2022/06/23 09:44:02;;;;;;;8.23;3.28;;;;;;;25.61;50.22;100499.38;5074889;28;20047;-69
2022/06/23 09:46:45;;;;;;;6.95;2.80;;;;;;;25.63;49.91;100496.91;5075979;28;20047;-68
2022/06/23 09:49:18;;;;;;;15.18;3.30;;;;;;;25.37;50.33;100504.03;5080535;28;20052;-68
2022/06/23 09:52:11;;;;;;;17.90;8.05;;;;;;;25.55;50.50;100501.84;5076329;28;20040;-72
2022/06/23 09:55:18;;;;;;;10.27;4.57;;;;;;;25.35;51.27;100511.31;5072677;28;20067;-69
2022/06/23 09:58:00;;;;;;;10.27;4.45;;;;;;;25.48;51.16;100510.38;5051940;28;20056;-68
2022/06/23 10:00:43;;;;;;;15.13;3.90;;;;;;;25.83;49.55;100512.00;5055541;28;20519;-69
2022/06/23 10:03:29;;;;;;;11.65;4.03;;;;;;;25.57;49.90;100507.06;5069495;28;20048;-69
2022/06/23 10:06:27;;;;;;;8.00;3.88;;;;;;;25.93;48.90;100499.78;5038614;28;20412;-68
2022/06/23 10:09:01;;;;;;;14.68;3.33;;;;;;;25.59;49.70;100507.44;5056694;28;20055;-69
2022/06/23 10:12:00;;;;;;;8.38;3.75;;;;;;;25.60;50.16;100509.03;5055792;28;20052;-69
2022/06/23 10:14:31;;;;;;;6.85;3.45;;;;;;;25.74;50.20;100502.41;5042361;28;20415;-69
2022/06/23 10:17:29;;;;;;;12.10;3.35;;;;;;;25.55;50.39;100501.84;5077450;28;20043;-68
2022/06/23 10:20:09;;;;;;;8.02;3.38;;;;;;;25.85;49.70;100509.56;5069012;28;20052;-68
2022/06/23 10:22:56;;;;;;;9.93;5.00;;;;;;;25.65;50.37;100504.97;5072397;28;20056;-68
2022/06/23 10:25:29;;;;;;;11.27;5.90;;;;;;;25.86;50.31;100504.69;5073984;28;20057;-69
2022/06/23 10:28:24;;;;;;;12.93;6.20;;;;;;;25.94;50.04;100503.41;5074687;28;20044;-71
2022/06/23 10:31:45;;;;;;;9.13;3.60;;;;;;;26.07;48.87;100502.44;5077902;28;20063;-69
2022/06/23 10:34:44;;;;;;;10.23;3.80;;;;;;;25.91;49.53;100493.75;5057016;28;20076;-70
2022/06/23 10:37:18;;;;;;;12.10;6.72;;;;;;;25.93;50.31;100496.94;5059115;28;20063;-71
2022/06/23 10:40:04;;;;;;;16.55;12.05;;;;;;;26.10;49.58;100495.94;5078018;28;20060;-72
2022/06/23 10:42:58;;;;;;;18.08;13.07;;;;;;;26.23;48.79;100488.50;5065733;28;20044;-69
2022/06/23 10:45:38;;;;;;;15.32;8.15;;;;;;;26.52;48.34;100492.50;5053536;28;20063;-71
2022/06/23 10:48:13;;;;;;;13.02;8.45;;;;;;;26.51;47.14;100485.28;5072040;28;20133;-70
2022/06/23 10:51:06;;;;;;;9.93;4.80;;;;;;;26.39;47.93;100488.69;5042061;28;20060;-70
2022/06/23 10:53:46;;;;;;;13.88;8.20;;;;;;;26.58;47.52;100492.84;5053802;28;20061;-69
2022/06/23 10:56:16;;;;;;;41.17;24.77;;;;;;;26.86;45.93;100483.94;5030691;28;20409;-70
2022/06/23 10:59:13;;;;;;;19.00;10.30;;;;;;;26.93;45.26;100480.97;5036443;28;20052;-68
2022/06/23 11:01:47;;;;;;;10.55;5.03;;;;;;;27.40;43.79;100478.94;5026360;28;20060;-69
2022/06/23 11:04:35;;;;;;;9.57;3.85;;;;;;;27.15;44.04;100472.91;5030006;28;20469;-68
2022/06/23 11:07:18;;;;;;;8.40;4.10;;;;;;;27.01;45.18;100476.78;5062728;28;20053;-70
2022/06/23 11:09:56;;;;;;;8.75;4.38;;;;;;;27.06;45.31;100475.50;5023178;28;20058;-69
2022/06/23 11:12:36;;;;;;;9.30;4.45;;;;;;;27.20;44.84;100469.59;5021891;28;20050;-69
2022/06/23 11:15:07;;;;;;;7.00;3.20;;;;;;;27.15;44.89;100476.53;5037115;28;20042;-69
2022/06/23 11:17:54;;;;;;;8.80;2.70;;;;;;;27.14;44.36;100474.97;5025550;28;20046;-69
2022/06/23 11:20:33;;;;;;;6.05;3.10;;;;;;;27.14;43.13;100468.50;5014547;28;20674;-70
2022/06/23 11:23:15;;;;;;;8.55;3.10;;;;;;;27.52;43.39;100461.31;5041022;28;20057;-69
2022/06/23 11:26:07;;;;;;;8.10;3.22;;;;;;;27.27;42.84;100458.13;5026775;28;20053;-70
2022/06/23 11:28:54;;;;;;;9.32;3.70;;;;;;;27.14;42.71;100458.00;5027766;28;20599;-69
2022/06/23 11:31:30;;;;;;;8.60;3.10;;;;;;;27.30;42.93;100460.16;5028234;28;20052;-69
2022/06/23 11:34:11;;;;;;;8.55;3.20;;;;;;;27.54;42.48;100461.69;5043696;28;20646;-69
2022/06/23 11:36:54;;;;;;;10.25;3.63;;;;;;;27.30;42.74;100463.75;5043108;28;20398;-69
2022/06/23 11:39:50;;;;;;;7.90;2.90;;;;;;;27.48;42.73;100449.25;5031493;28;20045;-70
2022/06/23 11:42:43;;;;;;;6.13;2.78;;;;;;;27.63;42.84;100442.88;5036658;28;20163;-69
2022/06/23 11:45:19;;;;;;;7.75;3.38;;;;;;;27.44;43.71;100435.19;5026150;28;20053;-69
2022/06/23 11:48:12;;;;;;;6.78;2.88;;;;;;;27.86;42.18;100439.16;5016258;28;20054;-69
2022/06/23 11:50:58;;;;;;;11.68;4.28;;;;;;;28.00;41.50;100444.53;5044735;28;20057;-69
2022/06/23 11:53:45;;;;;;;171.60;41.78;;;;;;;27.65;42.03;100439.63;5044775;28;20527;-70
2022/06/23 11:56:48;;;;;;;38.92;11.55;;;;;;;27.67;41.89;100437.16;5054270;28;20057;-68
2022/06/23 11:59:40;;;;;;;106.25;27.45;;;;;;;27.81;42.61;100436.06;5027088;28;20540;-69
2022/06/23 12:02:53;;;;;;;55.72;16.55;;;;;;;28.15;41.27;100414.69;5051968;28;20037;-67
2022/06/23 12:05:47;;;;;;;145.25;38.50;;;;;;;28.26;41.24;100425.75;5037502;28;20115;-70
2022/06/23 12:08:28;;;;;;;91.75;26.13;;;;;;;27.86;41.31;100429.88;5040361;28;20057;-69
2022/06/23 12:10:59;;;;;;;30.98;9.93;;;;;;;28.06;40.80;100417.31;5063898;28;20057;-70
2022/06/23 12:13:29;;;;;;;34.33;11.88;;;;;;;28.10;40.36;100415.22;5055033;28;20060;-70
2022/06/23 12:15:56;;;;;;;;;;;;;;;28.12;39.75;100407.06;5066176;28;20412;-70
2022/06/23 12:18:28;;;;;;;21.73;9.85;;;;;;;28.08;39.39;100406.34;5058412;28;19921;-69
2022/06/23 12:21:18;;;;;;;192.23;56.92;;;;;;;28.29;41.90;100397.34;5055692;28;20611;-43
2022/06/23 12:24:08;;;;;;;102.38;31.27;;;;;;;28.29;41.09;100400.19;5056024;28;20041;-67
2022/06/23 12:26:45;;;;;;;36.78;10.82;;;;;;;28.29;37.97;100388.03;5045613;28;20491;-67